createdAt,value
2023-02-07T00:03:30.743Z,5.83
2023-02-07T00:09:23.768Z,5.77
2023-02-07T00:15:17.290Z,5.53
2023-02-07T00:21:14.015Z,6.20
2023-02-07T00:27:08.087Z,6.30
2023-02-07T00:33:01.611Z,5.43
2023-02-07T00:39:00.048Z,5.70
2023-02-07T00:44:53.523Z,6.23
2023-02-07T00:50:46.929Z,5.90
2023-02-07T00:56:41.722Z,5.07
2023-02-07T01:02:34.740Z,5.30
2023-02-07T01:08:28.281Z,4.63
2023-02-07T01:14:23.076Z,5.33
2023-02-07T01:20:16.692Z,5.53
2023-02-07T01:26:09.696Z,4.97
2023-02-07T01:32:04.524Z,5.53
2023-02-07T01:37:58.755Z,5.23
2023-02-07T01:44:01.183Z,5.40
2023-02-07T01:49:59.076Z,5.13
2023-02-07T01:55:55.351Z,5.50
2023-02-07T02:01:49.035Z,5.57
2023-02-07T02:07:45.413Z,6.67
2023-02-07T02:13:46.434Z,6.00
2023-02-07T02:20:10.525Z,5.93
2023-02-07T02:26:42.130Z,6.33
2023-02-07T02:33:04.015Z,7.00
2023-02-07T02:39:08.391Z,7.30
2023-02-07T02:45:04.191Z,6.03
2023-02-07T02:50:59.668Z,7.63
2023-02-07T02:57:20.391Z,6.60
2023-02-07T03:03:32.350Z,7.20
2023-02-07T03:09:38.869Z,6.87
2023-02-07T03:15:42.079Z,7.07
2023-02-07T03:21:40.207Z,6.80
2023-02-07T03:27:35.786Z,6.60
2023-02-07T03:33:29.692Z,6.63
2023-02-07T03:39:23.444Z,7.17
2023-02-07T03:45:20.532Z,6.90
2023-02-07T03:51:13.931Z,7.30
2023-02-07T03:57:07.349Z,7.80
2023-02-07T04:03:02.082Z,7.30
2023-02-07T04:08:55.479Z,8.30
2023-02-07T04:14:48.479Z,8.80
2023-02-07T04:20:43.243Z,7.93
2023-02-07T04:26:36.882Z,8.10
2023-02-07T04:32:30.310Z,7.10
2023-02-07T04:38:25.636Z,8.50
2023-02-07T04:44:19.031Z,8.60
2023-02-07T04:50:12.491Z,8.80
2023-02-07T04:56:08.020Z,7.40
2023-02-07T05:02:01.442Z,7.80
2023-02-07T05:07:54.990Z,8.10
2023-02-07T05:13:50.620Z,7.90
2023-02-07T05:19:44.156Z,8.70
2023-02-07T05:25:38.076Z,8.33
2023-02-07T05:31:47.207Z,8.27
2023-02-07T05:37:40.665Z,8.30
2023-02-07T05:43:33.628Z,8.07
2023-02-07T05:49:28.211Z,8.40
2023-02-07T05:55:21.403Z,7.87
2023-02-07T06:01:14.860Z,7.97
2023-02-07T06:07:09.749Z,8.13
2023-02-07T06:13:02.742Z,7.97
2023-02-07T06:18:56.338Z,8.50
2023-02-07T06:24:51.145Z,8.53
2023-02-07T06:30:45.639Z,10.47
2023-02-07T06:36:38.770Z,8.87
2023-02-07T06:42:33.336Z,9.13
2023-02-07T06:48:26.429Z,9.40
2023-02-07T06:54:19.755Z,10.27
2023-02-07T07:00:15.788Z,10.63
2023-02-07T07:06:08.821Z,10.80
2023-02-07T07:12:02.397Z,10.40
2023-02-07T07:17:57.259Z,10.30
2023-02-07T07:23:50.581Z,10.90
2023-02-07T07:29:43.593Z,10.97
2023-02-07T07:35:38.399Z,11.77
2023-02-07T07:41:31.802Z,11.77
2023-02-07T07:47:25.277Z,12.10
2023-02-07T07:53:20.496Z,10.03
2023-02-07T07:59:23.710Z,11.43
2023-02-07T08:05:17.777Z,13.70
2023-02-07T08:11:12.631Z,11.50
2023-02-07T08:17:06.001Z,11.80
2023-02-07T08:22:59.208Z,13.00
2023-02-07T08:28:54.087Z,11.60
2023-02-07T08:34:47.195Z,13.00
2023-02-07T08:40:41.124Z,11.37
2023-02-07T08:46:35.614Z,13.17
2023-02-07T08:52:29.891Z,12.10
2023-02-07T08:58:22.878Z,13.70
2023-02-07T09:04:18.101Z,12.20
2023-02-07T09:10:11.654Z,11.90
2023-02-07T09:16:04.722Z,12.90
2023-02-07T09:21:59.348Z,12.23
2023-02-07T09:27:52.820Z,12.30
2023-02-07T09:33:45.955Z,13.40
2023-02-07T09:39:43.030Z,13.23
2023-02-07T09:45:41.572Z,14.07
2023-02-07T09:51:37.484Z,13.20
2023-02-07T09:57:37.905Z,12.27
2023-02-07T10:03:33.001Z,11.13
2023-02-07T10:09:29.937Z,12.97
2023-02-07T10:15:36.191Z,12.27
2023-02-07T10:21:39.988Z,13.40
2023-02-07T10:27:36.842Z,14.57
2023-02-07T10:33:34.639Z,13.13
2023-02-07T10:39:32.754Z,13.70
2023-02-07T10:45:26.194Z,14.80
2023-02-07T10:51:29.009Z,14.80
2023-02-07T10:57:23.416Z,16.17
2023-02-07T11:03:20.556Z,14.97
2023-02-07T11:09:22.121Z,17.20
2023-02-07T11:15:18.880Z,15.70
2023-02-07T11:21:25.327Z,16.23
2023-02-07T11:27:22.596Z,16.43
2023-02-07T11:33:20.794Z,16.90
2023-02-07T11:39:17.835Z,15.80
2023-02-07T11:45:17.394Z,16.03
2023-02-07T11:51:18.294Z,16.13
2023-02-07T11:57:15.567Z,16.53
2023-02-07T12:03:22.609Z,16.90
2023-02-07T12:09:33.037Z,17.80
2023-02-07T12:15:32.769Z,16.83
2023-02-07T12:21:32.249Z,19.93
2023-02-07T12:27:30.768Z,18.23
2023-02-07T12:33:34.259Z,17.80
2023-02-07T12:39:36.606Z,17.87
2023-02-07T12:45:47.355Z,17.57
2023-02-07T12:51:53.943Z,18.53
2023-02-07T12:57:56.122Z,18.47
2023-02-07T13:04:12.947Z,17.50
2023-02-07T13:10:19.764Z,17.40
2023-02-07T13:16:20.272Z,15.37
2023-02-07T13:22:23.618Z,15.90
2023-02-07T13:28:26.884Z,15.53
2023-02-07T13:34:24.280Z,13.80
2023-02-07T13:40:32.113Z,15.53
2023-02-07T13:46:56.260Z,14.70
2023-02-07T13:52:57.742Z,14.57
2023-02-07T13:59:12.039Z,12.50
2023-02-07T14:05:10.965Z,14.03
2023-02-07T14:11:27.626Z,12.90
2023-02-07T14:17:53.994Z,12.97
2023-02-07T14:24:06.474Z,12.60
2023-02-07T14:30:22.347Z,13.73
2023-02-07T14:36:26.702Z,12.33
2023-02-07T14:42:23.334Z,12.47
2023-02-07T14:48:37.353Z,11.53
2023-02-07T14:54:37.201Z,11.47
2023-02-07T15:00:35.708Z,12.30
2023-02-07T15:06:32.779Z,11.07
2023-02-07T15:12:28.509Z,11.63
2023-02-07T15:18:23.742Z,10.50
2023-02-07T15:24:24.622Z,9.77
2023-02-07T15:30:20.542Z,10.37
2023-02-07T15:36:30.171Z,10.53
2023-02-07T15:42:24.790Z,11.37
2023-02-07T15:48:18.250Z,10.67
2023-02-07T15:54:18.392Z,12.50
2023-02-07T16:00:19.056Z,11.50
2023-02-07T16:06:19.292Z,13.37
2023-02-07T16:12:49.736Z,16.73
2023-02-07T16:18:46.298Z,17.33
2023-02-07T16:24:43.009Z,17.77
2023-02-07T16:30:39.362Z,19.77
2023-02-07T16:36:34.179Z,18.70
2023-02-07T16:42:27.183Z,18.50
2023-02-07T16:48:20.668Z,18.13
2023-02-07T16:54:16.263Z,19.40
2023-02-07T17:00:14.534Z,18.27
2023-02-07T17:06:08.667Z,18.83
2023-02-07T17:12:03.572Z,20.23
2023-02-07T17:17:59.769Z,17.10
2023-02-07T17:23:52.844Z,18.40
2023-02-07T17:29:47.232Z,16.57
2023-02-07T17:35:41.049Z,17.03
2023-02-07T17:41:34.803Z,18.00
2023-02-07T17:47:29.555Z,18.47
2023-02-07T17:53:23.646Z,20.30
2023-02-07T17:59:23.757Z,20.70
2023-02-07T18:05:19.528Z,20.17
2023-02-07T18:11:14.617Z,17.47
2023-02-07T18:17:07.621Z,23.40
2023-02-07T18:23:02.375Z,21.17
2023-02-07T18:28:55.590Z,18.50
2023-02-07T18:34:49.285Z,22.80
2023-02-07T18:40:43.718Z,20.83
2023-02-07T18:46:37.230Z,24.00
2023-02-07T18:52:30.638Z,20.60
2023-02-07T18:58:25.380Z,19.00
2023-02-07T19:04:19.023Z,21.97
2023-02-07T19:10:12.716Z,19.87
2023-02-07T19:16:09.514Z,18.57
2023-02-07T19:22:03.201Z,20.10
2023-02-07T19:27:56.580Z,19.50
2023-02-07T19:33:53.352Z,22.00
2023-02-07T19:39:46.617Z,24.80
2023-02-07T19:45:39.728Z,27.70
2023-02-07T19:51:34.316Z,28.47
2023-02-07T19:57:28.037Z,30.00
2023-02-07T20:03:21.499Z,22.67
2023-02-07T20:09:16.198Z,20.10
2023-02-07T20:15:10.360Z,20.93
2023-02-07T20:21:11.390Z,23.83
2023-02-07T20:27:06.712Z,22.23
2023-02-07T20:32:59.869Z,18.20
2023-02-07T20:38:53.105Z,17.13
2023-02-07T20:44:47.639Z,18.80
2023-02-07T20:50:41.574Z,18.10
2023-02-07T20:56:36.717Z,19.10
2023-02-07T21:02:31.176Z,16.50
2023-02-07T21:08:25.165Z,16.03
2023-02-07T21:14:20.549Z,15.53
2023-02-07T21:20:16.770Z,15.37
2023-02-07T21:26:11.788Z,15.30
2023-02-07T21:32:05.029Z,22.60
2023-02-07T21:37:59.951Z,24.47
2023-02-07T21:43:54.476Z,22.03
2023-02-07T21:49:47.946Z,22.70
2023-02-07T21:55:42.216Z,16.10
2023-02-07T22:01:36.439Z,14.67
2023-02-07T22:07:29.521Z,15.40
2023-02-07T22:13:23.941Z,14.67
2023-02-07T22:19:17.590Z,15.97
2023-02-07T22:25:10.976Z,16.17
2023-02-07T22:31:10.166Z,15.83
2023-02-07T22:37:04.735Z,15.80
2023-02-07T22:42:58.096Z,16.00
2023-02-07T22:48:53.338Z,14.93
2023-02-07T22:54:46.748Z,14.70
2023-02-07T23:00:40.481Z,14.73
2023-02-07T23:06:35.650Z,14.20
2023-02-07T23:12:28.610Z,14.80
2023-02-07T23:18:21.901Z,13.17
2023-02-07T23:24:17.420Z,14.17
2023-02-07T23:30:12.226Z,12.37
2023-02-07T23:36:06.775Z,12.83
2023-02-07T23:42:01.607Z,13.47
2023-02-07T23:47:55.202Z,13.73
2023-02-07T23:53:48.819Z,12.40
2023-02-07T23:59:43.559Z,13.10
